createdAt,value
2023-04-15T00:03:42.166Z,7.05
2023-04-15T00:08:46.568Z,6.53
2023-04-15T00:13:49.416Z,6.45
2023-04-15T00:18:52.456Z,6.90
2023-04-15T00:23:56.936Z,6.82
2023-04-15T00:28:59.896Z,6.80
2023-04-15T00:34:03.670Z,7.57
2023-04-15T00:39:08.197Z,7.45
2023-04-15T00:44:11.499Z,8.35
2023-04-15T00:49:14.675Z,8.95
2023-04-15T00:54:18.925Z,8.00
2023-04-15T00:59:22.629Z,9.50
2023-04-15T01:04:26.679Z,8.32
2023-04-15T01:09:30.999Z,9.45
2023-04-15T01:14:35.250Z,9.75
2023-04-15T01:19:38.208Z,9.40
2023-04-15T01:24:44.089Z,10.05
2023-04-15T01:29:48.579Z,8.85
2023-04-15T01:34:51.458Z,9.77
2023-04-15T01:39:54.339Z,9.60
2023-04-15T01:45:00.199Z,9.57
2023-04-15T01:50:02.994Z,9.77
2023-04-15T01:55:08.037Z,10.30
2023-04-15T02:00:13.168Z,9.50
2023-04-15T02:05:18.720Z,10.48
2023-04-15T02:10:23.563Z,10.30
2023-04-15T02:15:27.825Z,10.45
2023-04-15T02:20:32.178Z,9.75
2023-04-15T02:25:35.046Z,10.35
2023-04-15T02:30:42.210Z,9.55
2023-04-15T02:35:45.520Z,9.70
2023-04-15T02:40:49.764Z,9.63
2023-04-15T02:45:54.329Z,9.32
2023-04-15T02:51:12.480Z,9.63
2023-04-15T02:56:17.126Z,10.05
2023-04-15T03:01:21.535Z,9.40
2023-04-15T03:06:24.763Z,9.48
2023-04-15T03:11:28.202Z,9.32
2023-04-15T03:16:32.448Z,8.95
2023-04-15T03:21:35.459Z,9.25
2023-04-15T03:26:38.933Z,9.93
2023-04-15T03:31:49.304Z,9.82
2023-04-15T03:36:52.920Z,10.32
2023-04-15T03:41:56.453Z,10.90
2023-04-15T03:47:00.726Z,11.85
2023-04-15T03:52:03.686Z,10.95
2023-04-15T03:57:06.584Z,10.50
2023-04-15T04:02:10.843Z,10.98
2023-04-15T04:07:16.960Z,10.48
2023-04-15T04:12:19.814Z,11.55
2023-04-15T04:17:24.043Z,11.60
2023-04-15T04:22:26.869Z,11.52
2023-04-15T04:27:29.740Z,12.00
2023-04-15T04:32:34.071Z,11.98
2023-04-15T04:37:36.969Z,11.52
2023-04-15T04:42:40.258Z,12.70
2023-04-15T04:47:44.581Z,12.30
2023-04-15T04:52:47.648Z,12.82
2023-04-15T04:57:50.647Z,13.02
2023-04-15T05:02:54.931Z,12.63
2023-04-15T05:07:58.977Z,13.75
2023-04-15T05:13:02.499Z,14.13
2023-04-15T05:18:06.723Z,13.77
2023-04-15T05:23:09.665Z,13.90
2023-04-15T05:28:12.614Z,14.77
2023-04-15T05:33:17.635Z,15.57
2023-04-15T05:38:20.522Z,4.20
2023-04-15T05:43:23.380Z,12.55
2023-04-15T05:48:27.587Z,15.18
2023-04-15T05:53:30.421Z,10.82
2023-04-15T05:58:33.325Z,14.82
2023-04-15T06:03:37.958Z,14.95
2023-04-15T06:08:40.914Z,15.10
2023-04-15T06:13:43.866Z,15.85
2023-04-15T06:18:48.102Z,16.33
2023-04-15T06:23:51.027Z,16.50
2023-04-15T06:28:54.038Z,16.90
2023-04-15T06:33:58.281Z,17.92
2023-04-15T06:39:01.498Z,19.25
2023-04-15T06:44:04.869Z,22.73
2023-04-15T06:49:09.140Z,27.40
2023-04-15T06:54:12.071Z,27.83
2023-04-15T06:59:15.351Z,26.83
2023-04-15T07:04:20.399Z,23.40
2023-04-15T07:09:23.620Z,23.58
2023-04-15T07:14:26.647Z,23.88
2023-04-15T07:19:31.125Z,24.13
2023-04-15T07:24:34.111Z,24.33
2023-04-15T07:29:37.060Z,24.52
2023-04-15T07:34:41.623Z,24.80
2023-04-15T07:39:44.561Z,24.27
2023-04-15T07:44:47.508Z,23.45
2023-04-15T07:49:52.429Z,23.48
2023-04-15T07:54:55.745Z,21.98
2023-04-15T07:59:58.660Z,19.70
2023-04-15T08:05:03.285Z,19.83
2023-04-15T08:10:07.459Z,20.58
2023-04-15T08:15:11.206Z,19.60
2023-04-15T08:20:18.175Z,17.52
2023-04-15T08:25:21.302Z,18.52
2023-04-15T08:30:24.575Z,19.15
2023-04-15T08:35:28.911Z,17.70
2023-04-15T08:40:41.819Z,15.60
2023-04-15T08:45:46.788Z,16.48
2023-04-15T08:50:52.201Z,17.27
2023-04-15T08:55:58.570Z,16.50
2023-04-15T09:01:02.190Z,17.17
2023-04-15T09:06:07.535Z,15.70
2023-04-15T09:11:10.599Z,16.55
2023-04-15T09:16:15.786Z,14.20
2023-04-15T09:21:20.420Z,13.45
2023-04-15T09:26:32.147Z,13.45
2023-04-15T09:31:35.042Z,13.15
2023-04-15T09:36:58.308Z,12.38
2023-04-15T09:42:09.092Z,13.40
2023-04-15T09:47:28.482Z,13.15
2023-04-15T09:52:32.865Z,11.50
2023-04-15T09:57:37.298Z,11.52
2023-04-15T10:02:41.905Z,12.27
2023-04-15T10:07:48.290Z,11.23
2023-04-15T10:12:53.323Z,11.15
2023-04-15T10:17:57.527Z,10.55
2023-04-15T10:23:02.956Z,10.68
2023-04-15T10:28:07.618Z,10.27
2023-04-15T10:33:11.317Z,10.68
2023-04-15T10:38:35.061Z,10.18
2023-04-15T10:43:38.584Z,9.27
2023-04-15T10:48:48.800Z,9.82
2023-04-15T10:53:57.728Z,10.57
2023-04-15T10:59:02.086Z,10.52
2023-04-15T11:04:05.245Z,11.00
2023-04-15T11:09:09.723Z,10.90
2023-04-15T11:14:16.644Z,12.02
2023-04-15T11:19:19.665Z,11.02
2023-04-15T11:24:27.438Z,12.35
2023-04-15T11:29:32.171Z,10.18
2023-04-15T11:34:36.114Z,10.95
2023-04-15T11:39:40.615Z,10.77
2023-04-15T11:44:43.487Z,9.77
2023-04-15T11:49:46.382Z,10.45
2023-04-15T11:54:50.631Z,10.10
2023-04-15T11:59:56.203Z,8.70
2023-04-15T12:05:05.288Z,7.35
2023-04-15T12:10:09.677Z,7.90
2023-04-15T12:15:12.497Z,9.43
2023-04-15T12:20:16.861Z,8.48
2023-04-15T12:25:21.111Z,7.45
2023-04-15T12:30:24.105Z,7.72
2023-04-15T12:35:26.898Z,8.10
2023-04-15T12:40:31.204Z,8.02
2023-04-15T12:45:34.177Z,7.93
2023-04-15T12:50:37.243Z,7.63
2023-04-15T12:55:41.724Z,7.65
2023-04-15T13:00:44.819Z,7.97
2023-04-15T13:05:47.741Z,9.48
2023-04-15T13:10:52.008Z,8.60
2023-04-15T13:15:54.992Z,9.77
2023-04-15T13:20:57.948Z,9.77
2023-04-15T13:26:02.241Z,9.77
2023-04-15T13:31:06.050Z,10.90
2023-04-15T13:36:09.578Z,11.05
2023-04-15T13:41:13.796Z,11.60
2023-04-15T13:46:16.822Z,11.20
2023-04-15T13:51:19.712Z,10.95
2023-04-15T13:56:23.925Z,10.32
2023-04-15T14:01:27.217Z,10.50
2023-04-15T14:06:31.618Z,11.48
2023-04-15T14:11:36.755Z,12.05
2023-04-15T14:16:40.150Z,11.85
2023-04-15T14:21:43.047Z,11.88
2023-04-15T14:26:47.241Z,14.25
2023-04-15T14:32:04.268Z,15.05
2023-04-15T14:42:16.963Z,14.90
2023-04-15T14:47:19.942Z,15.25
2023-04-15T14:52:22.840Z,16.10
2023-04-15T14:57:27.026Z,16.38
2023-04-15T15:07:36.106Z,16.33
2023-04-15T15:12:40.306Z,17.38
2023-04-15T15:17:43.288Z,16.50
2023-04-15T15:22:46.272Z,15.35
2023-04-15T15:27:50.814Z,16.45
2023-04-15T15:32:53.857Z,15.57
2023-04-15T15:37:56.715Z,15.65
2023-04-15T15:43:00.935Z,14.70
2023-04-15T15:48:03.950Z,14.77
2023-04-15T15:53:06.831Z,14.48
2023-04-15T15:58:11.010Z,15.52
2023-04-15T16:03:14.182Z,15.73
2023-04-15T16:08:17.114Z,18.08
2023-04-15T16:13:21.354Z,16.95
2023-04-15T16:18:24.161Z,16.25
2023-04-15T16:23:27.096Z,16.50
2023-04-15T16:28:31.324Z,17.10
2023-04-15T16:33:34.172Z,15.85
2023-04-15T16:38:36.962Z,18.00
2023-04-15T16:43:41.206Z,19.80
2023-04-15T16:48:44.026Z,20.60
2023-04-15T16:53:46.927Z,23.48
2023-04-15T16:58:51.072Z,24.45
2023-04-15T17:03:56.058Z,23.80
2023-04-15T17:08:59.054Z,25.95
2023-04-15T17:14:03.578Z,27.27
2023-04-15T17:19:06.589Z,26.10
2023-04-15T17:24:09.427Z,28.10
2023-04-15T17:29:13.646Z,27.48
2023-04-15T17:34:16.510Z,28.17
2023-04-15T17:39:19.417Z,29.90
2023-04-15T17:44:25.208Z,29.70
2023-04-15T17:49:28.456Z,30.70
2023-04-15T17:54:31.264Z,30.55
2023-04-15T17:59:35.456Z,31.00
2023-04-15T18:04:40.521Z,34.08
2023-04-15T18:09:44.295Z,34.83
2023-04-15T18:14:48.495Z,33.47
2023-04-15T18:19:51.601Z,32.40
2023-04-15T18:24:54.593Z,33.10
2023-04-15T18:29:58.857Z,36.63
2023-04-15T18:35:02.008Z,34.20
2023-04-15T18:40:05.731Z,36.25
2023-04-15T18:45:10.874Z,35.58
2023-04-15T18:50:13.698Z,34.33
2023-04-15T18:55:19.083Z,35.53
2023-04-15T19:00:23.499Z,36.30
2023-04-15T19:05:27.071Z,35.17
2023-04-15T19:10:29.947Z,35.75
2023-04-15T19:15:34.149Z,36.75
2023-04-15T19:20:39.197Z,36.10
2023-04-15T19:25:42.839Z,40.08
2023-04-15T19:30:47.199Z,36.85
2023-04-15T19:35:50.366Z,37.97
2023-04-15T19:40:53.250Z,40.03
2023-04-15T19:45:57.511Z,39.47
2023-04-15T19:51:00.608Z,37.85
2023-04-15T19:56:03.550Z,38.17
2023-04-15T20:01:07.949Z,40.30
2023-04-15T20:06:10.914Z,39.85
2023-04-15T20:11:15.189Z,42.45
2023-04-15T20:16:19.536Z,45.05
2023-04-15T20:21:22.834Z,48.90
2023-04-15T20:26:25.865Z,47.53
2023-04-15T20:31:31.213Z,49.15
2023-04-15T20:36:34.322Z,50.25
2023-04-15T20:41:37.158Z,48.92
2023-04-15T20:46:41.543Z,50.15
2023-04-15T20:51:44.453Z,46.95
2023-04-15T20:56:47.283Z,48.65
2023-04-15T21:01:52.298Z,48.70
2023-04-15T21:06:55.489Z,47.47
2023-04-15T21:12:01.750Z,49.42
2023-04-15T21:22:43.490Z,47.78
2023-04-15T21:27:46.167Z,50.58
2023-04-15T21:32:49.059Z,47.80
2023-04-15T21:37:53.284Z,49.10
2023-04-15T21:42:56.157Z,49.97
2023-04-15T21:48:07.260Z,49.00
2023-04-15T21:53:13.027Z,47.50
2023-04-15T21:58:15.952Z,46.97
2023-04-15T22:03:19.310Z,47.22
2023-04-15T22:08:23.772Z,48.42
2023-04-15T22:13:26.885Z,50.45
2023-04-15T22:18:29.823Z,50.95
2023-04-15T22:23:34.004Z,47.97
2023-04-15T22:28:36.910Z,48.50
2023-04-15T22:33:39.879Z,47.95
2023-04-15T22:38:44.091Z,48.30
2023-04-15T22:43:47.232Z,49.30
2023-04-15T22:48:50.159Z,48.58
2023-04-15T22:53:54.703Z,48.58
2023-04-15T22:58:57.536Z,46.53
2023-04-15T23:04:05.992Z,49.67
2023-04-15T23:09:24.769Z,48.63
2023-04-15T23:14:28.070Z,50.42
2023-04-15T23:19:30.923Z,48.53
2023-04-15T23:24:35.169Z,47.13
2023-04-15T23:29:37.998Z,45.35
2023-04-15T23:34:40.918Z,47.88
2023-04-15T23:39:45.170Z,48.05
2023-04-15T23:44:48.027Z,45.97
2023-04-15T23:49:50.860Z,46.20
2023-04-15T23:54:55.104Z,44.42
2023-04-15T23:59:57.925Z,45.63
